createdAt,value
2023-03-22T00:01:54.356Z,5.65
2023-03-22T00:04:56.107Z,5.64
2023-03-22T00:07:58.197Z,5.64
2023-03-22T00:10:59.928Z,5.63
2023-03-22T00:14:01.467Z,5.62
2023-03-22T00:17:03.069Z,5.59
2023-03-22T00:20:05.664Z,5.58
2023-03-22T00:23:07.265Z,5.58
2023-03-22T00:26:09.274Z,5.58
2023-03-22T00:29:10.842Z,5.59
2023-03-22T00:32:12.307Z,5.58
2023-03-22T00:35:14.086Z,5.56
2023-03-22T00:38:15.709Z,5.55
2023-03-22T00:41:21.558Z,5.55
2023-03-22T00:44:23.259Z,5.54
2023-03-22T00:47:24.900Z,5.54
2023-03-22T00:50:26.518Z,5.52
2023-03-22T00:53:28.211Z,5.51
2023-03-22T00:56:33.001Z,5.47
2023-03-22T00:59:34.601Z,5.42
2023-03-22T01:02:36.412Z,5.38
2023-03-22T01:05:38.432Z,5.35
2023-03-22T01:08:40.166Z,5.35
2023-03-22T01:11:42.868Z,5.32
2023-03-22T01:14:44.664Z,5.30
2023-03-22T01:17:46.516Z,5.31
2023-03-22T01:20:48.242Z,5.31
2023-03-22T01:23:49.859Z,5.28
2023-03-22T01:26:51.494Z,5.27
2023-03-22T01:29:53.308Z,5.25
2023-03-22T01:32:56.022Z,5.26
2023-03-22T01:35:57.945Z,5.25
2023-03-22T01:38:59.815Z,5.27
2023-03-22T01:42:02.815Z,5.25
2023-03-22T01:45:38.132Z,5.25
2023-03-22T01:48:42.331Z,5.29
2023-03-22T01:51:46.789Z,5.31
2023-03-22T01:54:50.728Z,5.31
2023-03-22T01:57:53.567Z,5.26
2023-03-22T02:00:55.428Z,5.20
2023-03-22T02:04:05.666Z,5.16
2023-03-22T02:07:13.589Z,5.11
2023-03-22T02:10:33.357Z,5.09
2023-03-22T02:14:09.090Z,5.07
2023-03-22T02:17:31.968Z,5.09
2023-03-22T02:20:53.135Z,5.10
2023-03-22T02:24:15.097Z,5.07
2023-03-22T02:27:41.599Z,5.02
2023-03-22T02:31:17.234Z,4.97
2023-03-22T02:34:44.423Z,4.90
2023-03-22T02:38:05.743Z,4.88
2023-03-22T02:41:32.107Z,4.88
2023-03-22T02:44:49.787Z,4.87
2023-03-22T02:48:01.310Z,4.80
2023-03-22T02:51:08.439Z,4.70
2023-03-22T02:54:13.845Z,4.63
2023-03-22T02:57:33.918Z,4.61
2023-03-22T03:00:36.351Z,4.61
2023-03-22T03:03:39.198Z,4.60
2023-03-22T03:06:43.607Z,4.56
2023-03-22T03:09:45.628Z,4.48
2023-03-22T03:12:47.412Z,4.36
2023-03-22T03:15:52.878Z,4.17
2023-03-22T03:19:08.008Z,3.96
2023-03-22T03:22:33.001Z,3.73
2023-03-22T03:26:12.239Z,3.56
2023-03-22T03:29:36.933Z,3.44
2023-03-22T03:32:47.715Z,3.36
2023-03-22T03:35:58.837Z,3.29
2023-03-22T03:39:01.820Z,3.28
2023-03-22T03:42:04.816Z,3.30
2023-03-22T03:45:07.801Z,3.32
2023-03-22T03:48:15.441Z,3.32
2023-03-22T03:51:17.270Z,3.25
2023-03-22T03:54:18.749Z,3.21
2023-03-22T03:57:21.071Z,3.24
2023-03-22T04:00:23.023Z,3.26
2023-03-22T04:03:25.528Z,3.27
2023-03-22T04:06:27.814Z,3.25
2023-03-22T04:09:35.286Z,3.22
2023-03-22T04:12:37.033Z,3.17
2023-03-22T04:15:38.717Z,3.15
2023-03-22T04:18:40.195Z,3.13
2023-03-22T04:21:42.303Z,3.10
2023-03-22T04:24:44.870Z,3.07
2023-03-22T04:27:47.200Z,3.05
2023-03-22T04:30:49.452Z,3.06
2023-03-22T04:33:51.358Z,3.10
2023-03-22T04:36:53.306Z,3.15
2023-03-22T04:39:55.077Z,3.23
2023-03-22T04:42:56.705Z,3.29
2023-03-22T04:46:03.965Z,3.35
2023-03-22T04:49:06.277Z,3.40
2023-03-22T04:52:08.369Z,3.47
2023-03-22T04:55:10.062Z,3.55
2023-03-22T04:58:11.708Z,3.58
2023-03-22T05:01:16.556Z,3.56
2023-03-22T05:04:19.036Z,3.52
2023-03-22T05:07:20.837Z,3.45
2023-03-22T05:10:22.326Z,3.30
2023-03-22T05:13:26.495Z,3.14
2023-03-22T05:16:28.252Z,3.09
2023-03-22T05:19:29.947Z,2.96
2023-03-22T05:22:31.455Z,2.98
2023-03-22T05:25:33.328Z,3.06
2023-03-22T05:28:35.009Z,3.06
2023-03-22T05:31:36.840Z,3.08
2023-03-22T05:34:38.501Z,3.06
2023-03-22T05:37:40.388Z,3.07
2023-03-22T05:40:43.085Z,3.10
2023-03-22T05:43:44.808Z,3.09
2023-03-22T05:46:46.701Z,3.12
2023-03-22T05:49:48.751Z,3.26
2023-03-22T05:52:50.983Z,3.26
2023-03-22T05:55:55.362Z,3.31
2023-03-22T05:58:57.137Z,3.35
2023-03-22T06:01:59.125Z,3.37
2023-03-22T06:05:00.785Z,3.33
2023-03-22T06:08:02.626Z,3.29
2023-03-22T06:11:07.754Z,3.36
2023-03-22T06:14:12.597Z,3.42
2023-03-22T06:17:14.288Z,3.40
2023-03-22T06:20:15.861Z,3.52
2023-03-22T06:23:17.551Z,3.67
2023-03-22T06:26:21.850Z,3.74
2023-03-22T06:29:24.546Z,3.86
2023-03-22T06:32:26.650Z,4.10
2023-03-22T06:35:28.226Z,4.34
2023-03-22T06:38:30.181Z,4.50
2023-03-22T06:41:31.838Z,4.64
2023-03-22T06:44:33.976Z,4.78
2023-03-22T06:47:35.522Z,4.95
2023-03-22T06:50:37.440Z,5.39
2023-03-22T06:53:39.303Z,5.55
2023-03-22T06:56:40.879Z,5.63
2023-03-22T06:59:42.592Z,5.78
2023-03-22T07:02:44.252Z,5.85
2023-03-22T07:05:46.082Z,5.92
2023-03-22T07:08:48.005Z,5.97
2023-03-22T07:11:50.333Z,5.97
2023-03-22T07:14:51.778Z,6.11
2023-03-22T07:17:53.378Z,6.32
2023-03-22T07:20:54.874Z,6.78
2023-03-22T07:23:56.557Z,7.03
2023-03-22T07:26:58.087Z,7.13
2023-03-22T07:29:59.748Z,7.18
2023-03-22T07:33:01.454Z,7.35
2023-03-22T07:36:04.318Z,7.55
2023-03-22T07:39:05.978Z,8.02
2023-03-22T07:42:07.648Z,8.55
2023-03-22T07:45:09.642Z,8.78
2023-03-22T07:48:11.436Z,8.69
2023-03-22T07:51:13.102Z,8.54
2023-03-22T07:54:30.601Z,8.56
2023-03-22T07:57:35.741Z,9.19
2023-03-22T08:00:37.651Z,10.39
2023-03-22T08:03:39.391Z,11.33
2023-03-22T08:06:41.692Z,12.21
2023-03-22T08:09:43.392Z,13.05
2023-03-22T08:12:44.993Z,13.32
2023-03-22T08:15:46.697Z,13.31
2023-03-22T08:18:48.702Z,13.90
2023-03-22T08:21:50.339Z,14.54
2023-03-22T08:24:52.384Z,14.75
2023-03-22T08:27:54.045Z,14.93
2023-03-22T08:30:55.568Z,15.38
2023-03-22T08:33:57.288Z,15.81
2023-03-22T08:36:58.974Z,15.82
2023-03-22T08:40:00.671Z,16.00
2023-03-22T08:43:02.332Z,16.39
2023-03-22T08:46:04.202Z,16.91
2023-03-22T08:49:05.775Z,17.18
2023-03-22T08:52:07.485Z,17.17
2023-03-22T08:55:09.778Z,17.48
2023-03-22T08:58:15.895Z,17.54
2023-03-22T09:01:17.744Z,17.72
2023-03-22T09:04:19.546Z,17.87
2023-03-22T09:07:21.261Z,17.88
2023-03-22T09:10:22.825Z,18.16
2023-03-22T09:13:24.579Z,18.17
2023-03-22T09:16:26.722Z,17.79
2023-03-22T09:19:28.530Z,17.50
2023-03-22T09:22:30.090Z,17.26
2023-03-22T09:25:31.771Z,16.80
2023-03-22T09:28:33.856Z,16.39
2023-03-22T09:31:35.449Z,16.37
2023-03-22T09:34:37.045Z,17.19
2023-03-22T09:37:38.695Z,18.24
2023-03-22T09:40:51.980Z,18.91
2023-03-22T09:44:00.530Z,19.52
2023-03-22T09:47:04.050Z,19.26
2023-03-22T09:50:12.028Z,18.68
2023-03-22T09:53:15.721Z,17.99
2023-03-22T09:56:21.438Z,17.18
2023-03-22T09:59:39.071Z,16.65
2023-03-22T10:02:46.611Z,16.13
2023-03-22T10:06:01.411Z,15.85
2023-03-22T10:09:21.387Z,15.53
2023-03-22T10:12:31.885Z,15.13
2023-03-22T10:15:37.478Z,14.88
2023-03-22T10:18:45.452Z,14.51
2023-03-22T10:21:50.164Z,14.25
2023-03-22T10:24:52.729Z,14.15
2023-03-22T10:27:54.488Z,14.24
2023-03-22T10:30:57.375Z,14.30
2023-03-22T10:34:17.044Z,14.31
2023-03-22T10:37:22.645Z,14.42
2023-03-22T10:40:33.051Z,14.59
2023-03-22T10:43:39.324Z,14.85
2023-03-22T10:46:41.762Z,15.12
2023-03-22T10:49:47.425Z,15.39
2023-03-22T10:53:14.248Z,15.62
2023-03-22T10:56:17.991Z,15.80
2023-03-22T10:59:50.848Z,16.03
2023-03-22T11:02:54.193Z,16.39
2023-03-22T11:06:07.298Z,16.57
2023-03-22T11:09:16.617Z,16.61
2023-03-22T11:12:18.322Z,16.89
2023-03-22T11:15:30.315Z,17.24
2023-03-22T11:18:34.214Z,17.66
2023-03-22T11:21:35.945Z,17.99
2023-03-22T11:24:37.613Z,18.16
2023-03-22T11:28:06.323Z,18.05
2023-03-22T11:31:19.546Z,18.10
2023-03-22T11:34:23.058Z,18.01
2023-03-22T11:37:24.727Z,17.73
2023-03-22T11:40:34.873Z,17.58
2023-03-22T11:43:41.106Z,17.65
2023-03-22T11:46:54.368Z,17.51
2023-03-22T11:49:55.948Z,17.74
2023-03-22T11:52:57.501Z,17.95
2023-03-22T11:55:59.912Z,18.11
2023-03-22T11:59:08.441Z,18.41
2023-03-22T12:02:31.236Z,18.91
2023-03-22T12:05:39.218Z,18.97
2023-03-22T12:08:56.826Z,18.94
2023-03-22T12:12:00.379Z,18.82
2023-03-22T12:15:06.575Z,18.61
2023-03-22T12:18:24.580Z,18.53
2023-03-22T12:21:26.199Z,18.45
2023-03-22T12:24:32.245Z,18.42
2023-03-22T12:27:37.416Z,18.24
2023-03-22T12:30:43.189Z,18.09
2023-03-22T12:33:49.432Z,18.17
2023-03-22T12:36:53.548Z,18.47
2023-03-22T12:40:13.648Z,18.28
2023-03-22T12:43:45.446Z,18.10
2023-03-22T12:46:51.532Z,18.19
2023-03-22T12:50:00.974Z,18.19
2023-03-22T12:53:02.958Z,18.14
2023-03-22T12:56:05.174Z,18.07
2023-03-22T12:59:15.472Z,18.10
2023-03-22T13:02:20.121Z,18.21
2023-03-22T13:05:21.812Z,18.35
2023-03-22T13:08:23.442Z,18.57
2023-03-22T13:11:25.235Z,18.54
2023-03-22T13:14:48.811Z,18.51
2023-03-22T13:17:50.379Z,18.68
2023-03-22T13:21:15.532Z,18.85
2023-03-22T13:24:20.763Z,18.98
2023-03-22T13:27:22.484Z,19.31
2023-03-22T13:30:36.329Z,19.55
2023-03-22T13:33:37.956Z,19.61
2023-03-22T13:36:39.874Z,19.62
2023-03-22T13:39:41.554Z,19.76
2023-03-22T13:42:43.132Z,19.85
2023-03-22T13:46:03.613Z,19.50
2023-03-22T13:49:37.868Z,19.12
2023-03-22T13:52:42.489Z,19.23
2023-03-22T13:55:46.725Z,18.71
2023-03-22T13:58:51.147Z,18.46
2023-03-22T14:02:16.742Z,18.43
2023-03-22T14:05:22.032Z,18.73
2023-03-22T14:08:26.748Z,18.76
2023-03-22T14:11:32.939Z,19.01
2023-03-22T14:14:41.310Z,18.90
2023-03-22T14:18:01.185Z,18.45
2023-03-22T14:21:09.878Z,18.45
